Time;durP1;ratioP1;P1;durP2;ratioP2;P2;SDS_P1;SDS_P2;PMS_P1;PMS_P2;Temp;Humidity;BMP_temperature;BMP_pressure;BME280_temperature;BME280_humidity;BME280_pressure;Samples;Min_cycle;Max_cycle;Signal;HPM_P1;HPM_P2
2021/09/17 00:00:29;;;;;;;13.40;8.60;;;15.90;99.90;;;;;;4993802;28;20089;-76
2021/09/17 00:02:56;;;;;;;15.02;9.07;;;15.80;99.90;;;;;;4993987;28;20417;-77
2021/09/17 00:05:25;;;;;;;10.60;8.95;;;15.80;99.90;;;;;;4993473;28;20082;-77
2021/09/17 00:07:52;;;;;;;14.73;10.52;;;15.80;99.90;;;;;;4993783;28;20050;-77
2021/09/17 00:10:20;;;;;;;15.02;9.27;;;15.80;99.90;;;;;;4993935;28;20495;-77
2021/09/17 00:12:47;;;;;;;14.27;10.20;;;15.80;99.90;;;;;;4993501;28;20141;-77
2021/09/17 00:15:15;;;;;;;13.35;9.75;;;15.80;99.90;;;;;;4993533;28;20141;-76
2021/09/17 00:17:43;;;;;;;12.93;9.77;;;15.80;99.90;;;;;;4994138;28;20128;-77
2021/09/17 00:20:12;;;;;;;13.13;9.77;;;15.70;99.90;;;;;;4993566;28;20132;-77
2021/09/17 00:22:41;;;;;;;19.05;11.38;;;15.70;99.90;;;;;;4992912;28;20050;-77
2021/09/17 00:25:09;;;;;;;13.98;11.57;;;15.60;99.90;;;;;;4993164;28;20423;-77
2021/09/17 00:27:36;;;;;;;17.83;12.68;;;15.60;99.90;;;;;;4993493;28;20133;-77
2021/09/17 00:30:05;;;;;;;21.92;12.82;;;15.60;99.90;;;;;;4993426;28;20050;-77
2021/09/17 00:32:32;;;;;;;19.50;13.63;;;15.60;99.90;;;;;;4993722;28;20082;-77
2021/09/17 00:34:59;;;;;;;19.27;15.10;;;15.60;99.90;;;;;;4993667;28;20046;-78
2021/09/17 00:37:26;;;;;;;19.27;15.93;;;15.70;99.90;;;;;;4993415;28;20145;-77
2021/09/17 00:39:54;;;;;;;21.92;16.63;;;15.70;99.90;;;;;;4993908;28;20065;-77
2021/09/17 00:42:21;;;;;;;23.70;17.67;;;15.70;99.90;;;;;;4993435;28;20145;-77
2021/09/17 00:44:48;;;;;;;19.80;17.70;;;15.80;99.90;;;;;;4994022;28;20046;-77
2021/09/17 00:47:15;;;;;;;26.45;18.95;;;15.80;99.90;;;;;;4993566;28;20141;-77
2021/09/17 00:49:42;;;;;;;22.50;18.65;;;15.80;99.90;;;;;;4993160;28;20050;-77
2021/09/17 00:52:09;;;;;;;22.30;19.23;;;15.90;99.90;;;;;;4993534;28;20137;-77
2021/09/17 00:54:37;;;;;;;27.00;21.33;;;15.90;99.90;;;;;;4993926;28;20479;-77
2021/09/17 00:57:06;;;;;;;27.65;20.73;;;16.00;99.90;;;;;;4994602;28;20082;-77
2021/09/17 00:59:32;;;;;;;26.73;21.30;;;15.90;99.90;;;;;;4995643;28;20081;-77
2021/09/17 01:01:59;;;;;;;27.10;22.95;;;16.00;99.90;;;;;;4995428;28;20085;-77
2021/09/17 01:04:26;;;;;;;28.30;23.98;;;16.00;99.90;;;;;;4995699;28;20046;-77
2021/09/17 01:06:54;;;;;;;31.55;24.13;;;16.00;99.90;;;;;;4996409;28;20054;-77
2021/09/17 01:09:22;;;;;;;29.50;26.35;;;16.00;99.90;;;;;;4996100;28;20097;-77
2021/09/17 01:11:49;;;;;;;30.10;26.95;;;16.00;99.90;;;;;;5015511;23;20110;-82
2021/09/17 01:14:17;;;;;;;35.97;29.33;;;16.00;99.90;;;;;;4992987;28;20058;-80
2021/09/17 01:16:44;;;;;;;37.67;28.73;;;16.00;99.90;;;;;;4992832;28;20063;-81
2021/09/17 01:19:12;;;;;;;36.92;28.20;;;16.00;99.90;;;;;;4992536;28;20061;-81
2021/09/17 01:21:40;;;;;;;36.70;31.17;;;16.00;99.90;;;;;;4990278;28;20085;-81
2021/09/17 01:24:07;;;;;;;36.85;30.48;;;16.10;99.90;;;;;;4986769;28;20051;-82
2021/09/17 01:26:34;;;;;;;37.85;30.55;;;16.10;99.90;;;;;;4986075;28;20082;-81
2021/09/17 01:29:01;;;;;;;42.85;32.00;;;16.10;99.90;;;;;;4983169;28;20051;-81
2021/09/17 01:31:30;;;;;;;40.90;32.08;;;16.10;99.90;;;;;;4984473;28;20070;-83
2021/09/17 01:34:05;;;;;;;40.15;33.35;;;16.10;99.90;;;;;;4987822;28;20070;-82
2021/09/17 01:36:32;;;;;;;37.00;31.75;;;16.10;99.90;;;;;;4988958;28;20059;-81
2021/09/17 01:39:00;;;;;;;39.47;33.33;;;16.10;99.90;;;;;;4989252;28;20101;-82
2021/09/17 01:41:28;;;;;;;37.70;33.58;;;16.00;99.90;;;;;;4988935;28;20053;-84
2021/09/17 01:43:55;;;;;;;40.20;34.13;;;16.00;99.90;;;;;;4987613;28;20105;-83
2021/09/17 01:46:22;;;;;;;38.83;33.42;;;16.00;99.90;;;;;;4987362;28;20082;-82
2021/09/17 01:48:49;;;;;;;42.20;35.15;;;16.00;99.90;;;;;;4990939;28;20078;-81
2021/09/17 01:51:16;;;;;;;44.83;34.42;;;16.00;99.90;;;;;;4989427;28;20631;-81
2021/09/17 01:53:43;;;;;;;41.58;35.75;;;16.00;99.90;;;;;;4985883;28;20050;-81
2021/09/17 01:56:11;;;;;;;43.13;35.83;;;15.90;99.90;;;;;;4985101;28;20078;-81
2021/09/17 01:58:40;;;;;;;45.55;35.85;;;15.90;99.90;;;;;;4986134;28;20140;-81
2021/09/17 02:01:07;;;;;;;44.08;36.70;;;15.90;99.90;;;;;;4986266;28;20079;-81
2021/09/17 02:03:34;;;;;;;45.13;36.45;;;16.00;99.90;;;;;;4986518;28;20092;-81
2021/09/17 02:06:01;;;;;;;45.33;38.00;;;16.00;99.90;;;;;;4986516;28;20077;-80
2021/09/17 02:08:28;;;;;;;45.67;37.63;;;15.90;99.90;;;;;;4987446;28;20078;-81
2021/09/17 02:10:54;;;;;;;50.25;37.80;;;15.90;99.90;;;;;;4988183;28;20085;-81
2021/09/17 02:13:23;;;;;;;47.03;37.65;;;15.90;99.90;;;;;;4984722;28;20097;-81
2021/09/17 02:15:51;;;;;;;45.05;37.22;;;16.00;99.90;;;;;;4985962;28;20069;-80
2021/09/17 02:18:20;;;;;;;45.15;36.80;;;16.00;99.90;;;;;;4986225;28;20054;-80
2021/09/17 02:20:47;;;;;;;43.08;36.25;;;16.00;99.90;;;;;;4985044;28;20082;-80
2021/09/17 02:23:16;;;;;;;42.53;36.90;;;16.00;99.90;;;;;;4986104;28;20114;-80
2021/09/17 02:25:43;;;;;;;46.28;35.05;;;16.10;99.90;;;;;;4988895;28;20125;-81
2021/09/17 02:28:10;;;;;;;42.22;34.45;;;16.00;99.90;;;;;;4988942;28;20058;-80
2021/09/17 02:30:38;;;;;;;49.85;33.90;;;16.00;99.90;;;;;;4989046;28;20074;-79
2021/09/17 02:33:05;;;;;;;43.88;33.45;;;16.10;99.90;;;;;;4990986;28;20059;-80
2021/09/17 02:35:32;;;;;;;44.13;32.92;;;16.10;99.90;;;;;;4990020;28;20051;-80
2021/09/17 02:37:59;;;;;;;43.10;32.92;;;16.10;99.90;;;;;;4992391;28;20054;-81
2021/09/17 02:40:27;;;;;;;42.15;32.05;;;16.10;99.90;;;;;;4992631;28;20050;-80
2021/09/17 02:42:54;;;;;;;42.35;31.73;;;16.20;99.90;;;;;;4993351;28;20053;-80
2021/09/17 02:45:21;;;;;;;37.00;30.63;;;16.10;99.90;;;;;;4990651;28;20090;-80
2021/09/17 02:47:49;;;;;;;40.90;31.30;;;16.10;99.90;;;;;;4991611;28;20055;-80
2021/09/17 02:50:16;;;;;;;40.53;32.40;;;16.10;99.90;;;;;;4991255;28;20054;-80
2021/09/17 02:52:44;;;;;;;43.05;30.60;;;16.10;99.90;;;;;;4991183;28;20074;-79
2021/09/17 02:55:11;;;;;;;39.65;30.98;;;16.10;99.90;;;;;;4989646;28;20055;-79
2021/09/17 02:57:38;;;;;;;41.83;31.17;;;16.10;99.90;;;;;;4991224;28;20046;-79
2021/09/17 03:00:07;;;;;;;41.30;30.92;;;16.20;99.90;;;;;;4991698;28;20074;-80
2021/09/17 03:02:37;;;;;;;38.58;30.20;;;16.20;99.90;;;;;;4988755;28;20093;-79
2021/09/17 03:05:06;;;;;;;35.90;29.90;;;16.20;99.90;;;;;;4990434;28;20430;-77
2021/09/17 03:07:33;;;;;;;38.42;30.30;;;16.20;99.90;;;;;;4984997;28;20130;-80
2021/09/17 03:10:00;;;;;;;41.03;32.17;;;16.20;99.90;;;;;;4982748;28;20097;-81
2021/09/17 03:12:26;;;;;;;37.10;30.33;;;16.20;99.90;;;;;;4983612;28;20078;-81
2021/09/17 03:14:53;;;;;;;38.67;29.15;;;16.30;99.90;;;;;;4983750;28;20129;-82
2021/09/17 03:17:20;;;;;;;37.50;28.55;;;16.30;99.90;;;;;;4989512;28;20074;-80
2021/09/17 03:19:47;;;;;;;38.50;29.55;;;16.30;99.90;;;;;;4988321;28;20082;-80
2021/09/17 03:22:15;;;;;;;40.88;29.52;;;16.30;99.90;;;;;;4984977;28;20066;-80
2021/09/17 03:24:42;;;;;;;35.95;29.08;;;16.30;99.90;;;;;;4983521;28;20085;-81
2021/09/17 03:27:09;;;;;;;39.63;28.58;;;16.30;99.90;;;;;;4984936;28;20047;-81
2021/09/17 03:29:36;;;;;;;36.00;28.98;;;16.30;99.90;;;;;;4985211;28;20086;-80
2021/09/17 03:32:04;;;;;;;39.10;29.15;;;16.30;99.90;;;;;;4983146;28;20058;-81
2021/09/17 03:34:30;;;;;;;35.17;27.60;;;16.30;99.90;;;;;;4982835;28;20082;-80
2021/09/17 03:36:57;;;;;;;41.47;30.38;;;16.30;99.90;;;;;;4982401;28;20488;-81
2021/09/17 03:39:25;;;;;;;34.78;29.48;;;16.30;99.90;;;;;;4981826;28;20508;-81
2021/09/17 03:41:53;;;;;;;40.03;29.52;;;16.30;99.90;;;;;;4983855;28;20089;-80
2021/09/17 03:44:20;;;;;;;34.78;28.20;;;16.30;99.90;;;;;;4985470;28;20485;-81
2021/09/17 03:46:48;;;;;;;40.78;29.00;;;16.30;99.90;;;;;;4987003;28;20082;-81
2021/09/17 03:49:15;;;;;;;37.13;28.33;;;16.30;99.90;;;;;;4985806;28;20465;-83
2021/09/17 03:51:42;;;;;;;34.90;28.48;;;16.30;99.90;;;;;;4985858;28;20058;-82
2021/09/17 03:54:09;;;;;;;35.72;28.88;;;16.30;99.90;;;;;;4986128;28;20078;-82
2021/09/17 03:56:37;;;;;;;38.30;29.20;;;16.30;99.90;;;;;;4983948;28;20097;-80
2021/09/17 03:59:04;;;;;;;40.10;29.08;;;16.30;99.90;;;;;;4984395;28;20074;-82
2021/09/17 04:01:31;;;;;;;35.38;27.33;;;16.30;99.90;;;;;;4984740;28;20517;-81
2021/09/17 04:03:58;;;;;;;35.50;27.52;;;16.30;99.90;;;;;;4986125;28;20078;-82
2021/09/17 04:06:25;;;;;;;36.20;27.45;;;16.20;99.90;;;;;;4985812;28;20492;-81
2021/09/17 04:08:52;;;;;;;36.53;28.75;;;16.20;99.90;;;;;;4987795;28;20130;-81
2021/09/17 04:11:18;;;;;;;36.47;28.42;;;16.20;99.90;;;;;;4980717;28;20081;-81
2021/09/17 04:13:47;;;;;;;37.45;28.83;;;16.20;99.90;;;;;;4981523;28;20078;-81
2021/09/17 04:16:16;;;;;;;41.90;28.88;;;16.10;99.90;;;;;;4982590;28;20047;-81
2021/09/17 04:18:42;;;;;;;37.58;30.02;;;16.10;99.90;;;;;;4983396;28;20200;-81
2021/09/17 04:21:09;;;;;;;35.10;28.63;;;16.10;99.90;;;;;;4983367;28;20137;-81
2021/09/17 04:23:36;;;;;;;40.47;29.33;;;16.20;99.90;;;;;;4992116;28;20109;-82
2021/09/17 04:26:03;;;;;;;37.17;29.60;;;16.00;99.90;;;;;;4991111;28;20066;-82
2021/09/17 04:28:30;;;;;;;37.20;29.20;;;16.00;99.90;;;;;;4990757;28;20089;-83
2021/09/17 04:30:58;;;;;;;41.22;30.45;;;15.90;99.90;;;;;;4990631;28;20082;-83
2021/09/17 04:33:25;;;;;;;37.10;29.25;;;15.90;99.90;;;;;;4991566;28;20497;-83
2021/09/17 04:35:52;;;;;;;35.13;29.23;;;15.90;99.90;;;;;;4991220;28;20050;-83
2021/09/17 04:38:19;;;;;;;39.90;29.13;;;15.90;99.90;;;;;;4984293;28;20078;-82
2021/09/17 04:40:46;;;;;;;36.65;28.65;;;16.00;99.90;;;;;;4990184;28;20078;-82
2021/09/17 04:43:13;;;;;;;40.47;29.52;;;16.00;99.90;;;;;;4991304;28;20054;-84
2021/09/17 04:45:40;;;;;;;38.67;28.80;;;16.00;99.90;;;;;;4987243;28;20081;-82
2021/09/17 04:48:10;;;;;;;37.60;29.70;;;15.90;99.90;;;;;;4987594;28;20133;-82
2021/09/17 04:50:40;;;;;;;39.60;29.67;;;15.90;99.90;;;;;;4990442;28;20051;-82
2021/09/17 04:53:07;;;;;;;43.10;30.67;;;15.80;99.90;;;;;;4997208;28;20051;-82
2021/09/17 04:55:34;;;;;;;36.80;30.15;;;15.70;99.90;;;;;;4994396;28;20094;-81
2021/09/17 04:58:03;;;;;;;38.67;29.90;;;15.70;99.90;;;;;;4987437;28;20115;-79
2021/09/17 05:00:30;;;;;;;40.63;29.90;;;15.80;99.90;;;;;;4978316;28;20479;-81
2021/09/17 05:03:06;;;;;;;40.40;28.50;;;15.80;99.90;;;;;;4979658;28;20082;-80
2021/09/17 05:05:46;;;;;;;42.78;29.58;;;15.80;99.90;;;;;;4987672;28;20130;-83
2021/09/17 05:08:15;;;;;;;37.45;26.88;;;15.90;99.90;;;;;;4989248;28;20046;-82
2021/09/17 05:10:55;;;;;;;39.92;28.10;;;15.90;99.90;;;;;;4991580;28;20087;-81
2021/09/17 05:13:29;;;;;;;35.92;27.50;;;15.90;99.90;;;;;;4991827;28;20141;-80
2021/09/17 05:15:57;;;;;;;33.75;25.85;;;15.90;99.90;;;;;;4991972;28;20082;-82
2021/09/17 05:18:31;;;;;;;37.45;25.48;;;15.90;99.90;;;;;;4991189;28;20138;-82
2021/09/17 05:21:05;;;;;;;35.88;26.38;;;15.90;99.90;;;;;;4992180;28;20054;-82
2021/09/17 05:23:33;;;;;;;40.60;25.30;;;16.00;99.90;;;;;;4994654;28;20081;-81
2021/09/17 05:26:02;;;;;;;31.70;24.00;;;16.00;99.90;;;;;;4993784;28;20102;-82
2021/09/17 05:28:29;;;;;;;34.33;24.67;;;16.00;99.90;;;;;;4993824;28;20500;-81
2021/09/17 05:31:00;;;;;;;33.67;25.02;;;16.00;99.90;;;;;;4993264;28;20508;-81
2021/09/17 05:33:27;;;;;;;32.60;23.45;;;16.00;99.90;;;;;;4992701;28;20102;-81
2021/09/17 05:35:54;;;;;;;31.83;23.42;;;16.00;99.90;;;;;;4991806;28;20421;-81
2021/09/17 05:38:22;;;;;;;31.30;24.10;;;16.00;99.90;;;;;;4990880;28;20529;-81
2021/09/17 05:40:49;;;;;;;30.75;23.58;;;16.00;99.90;;;;;;4992899;28;20050;-80
2021/09/17 05:43:16;;;;;;;34.78;23.67;;;16.10;99.90;;;;;;4991484;28;20059;-81
2021/09/17 05:45:43;;;;;;;27.27;23.35;;;16.10;99.90;;;;;;4993834;28;20039;-81
2021/09/17 05:48:10;;;;;;;31.50;23.00;;;16.10;99.90;;;;;;4993741;28;20051;-80
2021/09/17 05:50:37;;;;;;;33.00;24.17;;;16.10;99.90;;;;;;4993446;28;20047;-80
2021/09/17 05:53:04;;;;;;;26.90;22.92;;;16.10;99.90;;;;;;4992319;28;20074;-81
2021/09/17 05:55:32;;;;;;;31.23;23.25;;;16.10;99.90;;;;;;4993029;28;20053;-81
2021/09/17 05:57:59;;;;;;;35.70;23.35;;;16.10;99.90;;;;;;4993992;28;20051;-81
2021/09/17 06:00:26;;;;;;;31.92;22.92;;;16.10;99.90;;;;;;4993891;28;20055;-82
2021/09/17 06:02:54;;;;;;;32.75;23.15;;;16.10;99.90;;;;;;4993718;28;20054;-83
2021/09/17 06:05:21;;;;;;;27.92;23.58;;;16.10;99.90;;;;;;4991727;28;20043;-80
2021/09/17 06:07:48;;;;;;;32.35;23.77;;;16.20;99.90;;;;;;4994730;28;20046;-83
2021/09/17 06:10:15;;;;;;;30.95;22.05;;;16.20;99.90;;;;;;4985040;28;20058;-83
2021/09/17 06:12:44;;;;;;;30.23;23.10;;;16.20;99.90;;;;;;4986542;28;20051;-83
2021/09/17 06:15:12;;;;;;;34.58;22.77;;;16.20;99.90;;;;;;4988695;28;20298;-82
2021/09/17 06:17:40;;;;;;;31.48;23.70;;;16.20;99.90;;;;;;4985524;28;20061;-82
2021/09/17 06:20:08;;;;;;;32.33;24.45;;;16.10;99.90;;;;;;4990336;28;20059;-83
2021/09/17 06:22:35;;;;;;;31.88;23.05;;;16.10;99.90;;;;;;4992819;28;20085;-83
2021/09/17 06:25:02;;;;;;;29.85;22.65;;;16.20;99.90;;;;;;4992210;28;20070;-82
2021/09/17 06:27:29;;;;;;;27.63;22.20;;;16.30;99.90;;;;;;4991559;28;20067;-83
2021/09/17 06:29:59;;;;;;;30.60;23.00;;;16.30;99.90;;;;;;4990658;28;20158;-83
2021/09/17 06:32:26;;;;;;;41.67;23.23;;;16.30;99.90;;;;;;4990639;28;20057;-83
2021/09/17 06:34:53;;;;;;;36.47;22.98;;;16.30;99.90;;;;;;4991363;28;20186;-80
2021/09/17 06:37:19;;;;;;;32.92;22.92;;;16.30;99.90;;;;;;4988408;28;20053;-82
2021/09/17 06:39:46;;;;;;;29.63;22.35;;;16.30;99.90;;;;;;4987942;28;20047;-80
2021/09/17 06:42:13;;;;;;;37.60;22.90;;;16.30;99.90;;;;;;4984789;28;20055;-82
2021/09/17 06:44:40;;;;;;;29.60;22.35;;;16.30;99.90;;;;;;4986089;28;20109;-83
2021/09/17 06:47:08;;;;;;;34.08;23.88;;;16.30;99.90;;;;;;4985971;28;20093;-83
2021/09/17 06:49:35;;;;;;;29.67;23.70;;;16.30;99.90;;;;;;4985830;28;20054;-83
2021/09/17 06:52:02;;;;;;;29.77;22.80;;;16.20;99.90;;;;;;4985810;28;20055;-83
2021/09/17 06:54:29;;;;;;;28.13;23.58;;;16.10;99.90;;;;;;4983898;28;20089;-82
2021/09/17 06:56:56;;;;;;;31.63;24.60;;;16.10;99.90;;;;;;4982996;28;20057;-82
2021/09/17 06:59:25;;;;;;;28.58;24.05;;;16.10;99.90;;;;;;4983251;28;20066;-82
2021/09/17 07:01:51;;;;;;;30.77;23.02;;;16.20;99.90;;;;;;4983271;28;20130;-83
2021/09/17 07:04:20;;;;;;;34.95;24.40;;;16.20;99.90;;;;;;4982479;28;20486;-83
2021/09/17 07:06:46;;;;;;;35.17;24.65;;;16.10;99.90;;;;;;4980806;28;20083;-83
2021/09/17 07:09:13;;;;;;;37.17;25.83;;;16.10;99.90;;;;;;4981267;28;20610;-83
2021/09/17 07:14:17;;;;;;;32.30;25.42;;;16.00;99.90;;;;;;4993971;23;20053;-76
2021/09/17 07:16:44;;;;;;;28.33;24.65;;;16.10;99.90;;;;;;4954187;29;20085;-81
2021/09/17 07:19:11;;;;;;;29.48;24.40;;;16.20;99.90;;;;;;4954532;29;20480;-78
2021/09/17 07:21:39;;;;;;;29.73;24.25;;;16.30;99.90;;;;;;4954642;29;20652;-78
2021/09/17 07:24:06;;;;;;;33.58;23.98;;;16.30;99.90;;;;;;4954124;28;20075;-81
2021/09/17 07:26:33;;;;;;;35.22;24.58;;;16.40;99.90;;;;;;4954043;28;20453;-78
2021/09/17 07:29:00;;;;;;;30.10;24.35;;;16.50;99.90;;;;;;4954318;29;20138;-79
2021/09/17 07:31:27;;;;;;;30.45;23.38;;;16.60;99.90;;;;;;4966661;28;20395;-81
2021/09/17 07:33:55;;;;;;;31.05;24.40;;;16.60;99.90;;;;;;4967321;28;20051;-79
2021/09/17 07:36:21;;;;;;;33.58;24.58;;;16.70;99.90;;;;;;4961094;29;20047;-80
2021/09/17 07:38:50;;;;;;;32.40;25.45;;;16.70;99.90;;;;;;4961581;29;20097;-80
2021/09/17 07:41:17;;;;;;;29.17;25.00;;;16.60;99.90;;;;;;4961285;28;20055;-80
2021/09/17 07:43:45;;;;;;;31.13;25.50;;;16.70;99.90;;;;;;4955745;28;20059;-77
2021/09/17 07:46:13;;;;;;;31.10;25.35;;;16.70;99.90;;;;;;4955042;29;20395;-80
2021/09/17 07:48:42;;;;;;;33.95;26.77;;;16.70;99.90;;;;;;4955074;28;20074;-79
2021/09/17 07:51:09;;;;;;;34.33;25.27;;;16.70;99.90;;;;;;4955096;28;20055;-78
2021/09/17 07:53:36;;;;;;;37.33;25.75;;;16.70;99.90;;;;;;4954848;28;20110;-79
2021/09/17 07:56:05;;;;;;;29.90;23.58;;;16.60;99.90;;;;;;4955711;29;20125;-81
2021/09/17 07:58:31;;;;;;;31.17;24.55;;;16.50;99.90;;;;;;4954497;28;20141;-79
2021/09/17 08:00:58;;;;;;;27.25;23.95;;;16.60;99.90;;;;;;4953912;29;20458;-78
2021/09/17 08:03:29;;;;;;;30.58;23.20;;;16.60;99.90;;;;;;4955722;28;20054;-81
2021/09/17 08:05:56;;;;;;;28.73;23.45;;;16.60;99.90;;;;;;4957098;29;20462;-80
2021/09/17 08:08:23;;;;;;;32.17;24.02;;;16.60;99.90;;;;;;4955126;29;20047;-79
2021/09/17 08:10:50;;;;;;;34.55;24.73;;;16.70;99.90;;;;;;4954748;29;20078;-81
2021/09/17 08:13:18;;;;;;;34.53;24.33;;;16.70;99.90;;;;;;4954291;28;20065;-78
2021/09/17 08:15:45;;;;;;;29.75;23.75;;;16.80;99.90;;;;;;4959796;29;20120;-78
2021/09/17 08:18:12;;;;;;;33.88;25.02;;;16.80;99.90;;;;;;4956982;29;20079;-82
2021/09/17 08:20:45;;;;;;;35.53;24.67;;;16.80;99.90;;;;;;4956168;29;20051;-80
2021/09/17 08:23:12;;;;;;;31.77;24.48;;;16.80;99.90;;;;;;4955600;28;20051;-79
2021/09/17 08:25:38;;;;;;;28.95;24.58;;;16.90;99.90;;;;;;4955418;28;20047;-82
2021/09/17 08:28:05;;;;;;;30.50;25.05;;;16.90;99.90;;;;;;4955800;29;20509;-80
2021/09/17 08:30:34;;;;;;;32.47;24.95;;;16.90;99.90;;;;;;4955356;29;20098;-79
2021/09/17 08:33:01;;;;;;;31.27;24.52;;;17.00;99.90;;;;;;4954484;28;20065;-83
2021/09/17 08:35:27;;;;;;;30.67;24.63;;;17.00;99.90;;;;;;4954900;29;20134;-80
2021/09/17 08:37:54;;;;;;;38.67;25.45;;;17.10;99.90;;;;;;4955012;29;20134;-79
2021/09/17 08:40:21;;;;;;;33.92;24.55;;;17.20;99.90;;;;;;4954897;29;20121;-80
2021/09/17 08:42:48;;;;;;;30.25;24.67;;;17.30;99.90;;;;;;4956834;28;20618;-80
2021/09/17 08:45:15;;;;;;;29.92;23.52;;;17.40;99.90;;;;;;4958664;29;20075;-80
2021/09/17 08:47:46;;;;;;;35.80;27.23;;;17.50;99.90;;;;;;4960276;29;20103;-80
2021/09/17 08:50:14;;;;;;;31.25;23.88;;;17.50;99.90;;;;;;4962115;29;20142;-80
2021/09/17 08:52:40;;;;;;;29.17;24.10;;;17.60;99.90;;;;;;4961442;28;20123;-80
2021/09/17 08:55:08;;;;;;;29.23;23.80;;;17.70;99.90;;;;;;4960391;29;20134;-80
2021/09/17 08:57:35;;;;;;;27.92;22.80;;;17.70;99.90;;;;;;4959795;29;20043;-80
2021/09/17 09:00:02;;;;;;;30.50;22.95;;;17.80;99.90;;;;;;4959993;29;20089;-82
2021/09/17 09:02:30;;;;;;;31.70;22.95;;;17.90;99.90;;;;;;4960146;28;20142;-81
2021/09/17 09:05:00;;;;;;;35.00;23.95;;;18.00;99.90;;;;;;4963636;29;20051;-82
2021/09/17 09:07:34;;;;;;;30.48;23.73;;;18.00;99.90;;;;;;4963792;29;20146;-82
2021/09/17 09:10:07;;;;;;;28.63;23.17;;;18.10;99.90;;;;;;4962720;29;20055;-81
2021/09/17 09:12:33;;;;;;;31.17;23.85;;;18.10;99.90;;;;;;4962696;28;20867;-81
2021/09/17 09:15:15;;;;;;;32.65;24.95;;;18.10;99.90;;;;;;4963195;29;20075;-81
2021/09/17 09:17:43;;;;;;;37.00;23.60;;;18.10;99.90;;;;;;4963375;29;20058;-82
2021/09/17 09:20:29;;;;;;;31.23;24.13;;;18.20;99.90;;;;;;4963483;29;20378;-83
2021/09/17 09:23:08;;;;;;;32.00;24.38;;;18.20;99.90;;;;;;4964301;28;20486;-81
2021/09/17 09:25:36;;;;;;;33.00;25.50;;;18.10;99.90;;;;;;4971804;28;20074;-81
2021/09/17 09:28:14;;;;;;;34.40;25.08;;;18.20;99.90;;;;;;4968757;28;20394;-79
2021/09/17 09:30:41;;;;;;;35.83;24.77;;;18.30;99.90;;;;;;4958842;29;20493;-79
2021/09/17 09:33:27;;;;;;;32.65;24.98;;;18.40;99.90;;;;;;4958256;28;20057;-79
2021/09/17 09:36:18;;;;;;;27.02;22.65;;;18.50;99.90;;;;;;4952678;28;20067;-80
2021/09/17 09:38:47;;;;;;;29.73;22.88;;;18.70;99.90;;;;;;4956922;28;20054;-78
2021/09/17 09:41:17;;;;;;;32.38;23.40;;;18.80;99.90;;;;;;4959231;29;20106;-78
2021/09/17 09:43:51;;;;;;;30.23;22.42;;;18.90;99.90;;;;;;4957236;28;20078;-78
2021/09/17 09:46:28;;;;;;;28.42;21.38;;;19.10;99.90;;;;;;4957755;29;20043;-80
2021/09/17 09:49:16;;;;;;;28.42;21.50;;;19.30;99.90;;;;;;4959522;29;20145;-79
2021/09/17 09:51:53;;;;;;;26.40;21.55;;;19.50;99.90;;;;;;4958720;29;20078;-79
2021/09/17 09:54:23;;;;;;;34.22;22.25;;;19.60;99.90;;;;;;4957242;28;20066;-79
2021/09/17 09:56:51;;;;;;;32.97;21.67;;;19.70;99.90;;;;;;4958464;29;20047;-80
2021/09/17 09:59:23;;;;;;;30.38;22.17;;;19.80;99.90;;;;;;4959252;29;20093;-79
2021/09/17 10:01:51;;;;;;;26.88;21.27;;;20.00;99.90;;;;;;4958205;28;20054;-79
2021/09/17 10:04:22;;;;;;;29.55;21.25;;;20.00;99.90;;;;;;4957650;29;20074;-79
2021/09/17 10:07:03;;;;;;;32.08;20.55;;;20.00;99.90;;;;;;4957338;29;20421;-79
2021/09/17 10:09:30;;;;;;;28.27;19.48;;;20.00;99.90;;;;;;4957491;29;20054;-79
2021/09/17 10:11:59;;;;;;;32.22;21.08;;;20.00;99.90;;;;;;4956892;28;20473;-79
2021/09/17 10:14:27;;;;;;;24.55;20.15;;;20.10;99.90;;;;;;4958954;29;20094;-79
2021/09/17 10:16:55;;;;;;;23.45;19.67;;;20.20;99.90;;;;;;4958810;29;20071;-80
2021/09/17 10:19:23;;;;;;;28.02;20.15;;;20.40;99.90;;;;;;4957824;29;20047;-79
2021/09/17 10:21:54;;;;;;;23.95;20.38;;;20.60;99.90;;;;;;4956239;28;20490;-79
2021/09/17 10:24:41;;;;;;;23.90;19.88;;;20.60;99.90;;;;;;4958012;29;20110;-79
2021/09/17 10:27:12;;;;;;;25.30;20.52;;;20.70;99.90;;;;;;4958025;29;20134;-79
2021/09/17 10:29:42;;;;;;;22.60;19.35;;;20.80;99.90;;;;;;4959968;29;20114;-79
2021/09/17 10:32:30;;;;;;;29.10;22.52;;;20.90;99.90;;;;;;4958258;28;20134;-80
2021/09/17 10:35:04;;;;;;;28.05;22.35;;;21.20;99.90;;;;;;4959091;29;20043;-80
2021/09/17 10:37:55;;;;;;;29.73;24.50;;;21.40;99.90;;;;;;4959422;28;20122;-80
2021/09/17 10:40:40;;;;;;;30.00;23.58;;;21.50;99.90;;;;;;4958986;29;20110;-80
2021/09/17 10:43:19;;;;;;;30.67;23.95;;;21.60;99.90;;;;;;4959113;28;20078;-79
2021/09/17 10:45:47;;;;;;;31.30;24.27;;;21.60;99.90;;;;;;4959673;29;20136;-79
2021/09/17 10:48:16;;;;;;;26.88;23.35;;;21.50;99.90;;;;;;4958816;29;20520;-80
2021/09/17 10:50:55;;;;;;;29.05;23.13;;;21.50;99.90;;;;;;4958855;28;20521;-80
2021/09/17 10:54:02;;;;;;;26.92;22.77;;;21.50;99.90;;;;;;4959583;28;20055;-79
2021/09/17 10:57:01;;;;;;;28.83;23.27;;;21.60;99.90;;;;;;4959312;29;20097;-80
2021/09/17 10:59:50;;;;;;;30.17;23.80;;;21.70;99.90;;;;;;4961144;28;20047;-81
2021/09/17 11:02:17;;;;;;;26.92;22.85;;;21.80;99.90;;;;;;4958830;28;20055;-81
2021/09/17 11:04:46;;;;;;;26.33;22.60;;;22.00;99.90;;;;;;4959468;28;20059;-80
2021/09/17 11:07:34;;;;;;;28.30;22.60;;;22.20;99.90;;;;;;4959639;29;20053;-81
2021/09/17 11:10:02;;;;;;;28.45;23.13;;;22.20;99.90;;;;;;4959994;28;20055;-80
2021/09/17 11:12:32;;;;;;;30.02;23.42;;;22.30;99.90;;;;;;4959839;28;20055;-81
2021/09/17 11:15:18;;;;;;;28.08;23.27;;;22.30;99.90;;;;;;4959574;29;20081;-81
2021/09/17 11:17:47;;;;;;;31.08;24.83;;;22.30;99.90;;;;;;4959034;28;20524;-81
2021/09/17 11:20:19;;;;;;;29.20;23.63;;;22.20;99.90;;;;;;4959242;29;20138;-81
2021/09/17 11:22:51;;;;;;;30.48;21.35;;;22.20;99.90;;;;;;4959854;28;20134;-79
2021/09/17 11:25:31;;;;;;;24.63;21.80;;;22.30;99.90;;;;;;4958767;29;20061;-79
2021/09/17 11:28:00;;;;;;;26.05;23.20;;;22.30;99.90;;;;;;4957795;29;20131;-79
2021/09/17 11:30:29;;;;;;;25.98;23.13;;;22.30;99.90;;;;;;4954707;29;20047;-80
2021/09/17 11:32:56;;;;;;;24.88;22.17;;;22.30;99.90;;;;;;4954564;28;20371;-78
2021/09/17 11:35:24;;;;;;;28.23;24.05;;;22.20;99.90;;;;;;4954505;29;20142;-78
2021/09/17 11:37:53;;;;;;;27.48;22.67;;;22.20;99.90;;;;;;4954345;28;20134;-78
2021/09/17 11:40:21;;;;;;;28.63;23.95;;;22.20;99.90;;;;;;4954098;29;20063;-78
2021/09/17 11:42:48;;;;;;;31.20;25.98;;;22.20;99.90;;;;;;4953933;28;20066;-80
2021/09/17 11:45:18;;;;;;;26.52;23.73;;;22.10;99.90;;;;;;4954124;28;20115;-79
2021/09/17 11:47:49;;;;;;;28.92;25.77;;;22.20;99.90;;;;;;4955024;29;20095;-83
2021/09/17 11:50:17;;;;;;;25.47;22.67;;;22.30;99.90;;;;;;4957519;29;20142;-82
2021/09/17 11:52:47;;;;;;;30.38;24.80;;;22.50;99.90;;;;;;4956702;28;20138;-80
2021/09/17 11:55:16;;;;;;;26.88;23.25;;;22.70;99.90;;;;;;4956239;29;20117;-79
2021/09/17 11:57:44;;;;;;;31.08;25.60;;;22.80;99.90;;;;;;4955544;29;20481;-80
2021/09/17 12:00:18;;;;;;;29.90;25.30;;;22.70;99.90;;;;;;4956420;29;20422;-80
2021/09/17 12:02:46;;;;;;;30.50;25.55;;;22.80;99.90;;;;;;4954998;28;20051;-80
2021/09/17 12:05:20;;;;;;;27.63;24.25;;;22.80;99.90;;;;;;4955680;29;20055;-79
2021/09/17 12:07:49;;;;;;;31.02;24.58;;;22.90;99.90;;;;;;4955204;28;20130;-79
2021/09/17 12:10:18;;;;;;;28.55;25.45;;;23.00;99.90;;;;;;4956991;29;20051;-78
2021/09/17 12:12:47;;;;;;;27.30;23.70;;;22.90;99.90;;;;;;4955437;28;20047;-79
2021/09/17 12:15:24;;;;;;;29.80;24.63;;;23.00;99.90;;;;;;4955421;29;20086;-82
2021/09/17 12:17:57;;;;;;;26.83;23.25;;;23.10;99.90;;;;;;4954463;28;20093;-79
2021/09/17 12:20:42;;;;;;;28.27;24.33;;;23.10;99.90;;;;;;4955769;29;20134;-80
2021/09/17 12:23:11;;;;;;;30.20;25.13;;;23.20;99.90;;;;;;4955129;28;20057;-79
2021/09/17 12:25:38;;;;;;;26.30;23.48;;;23.10;99.90;;;;;;4955625;29;20086;-81
2021/09/17 12:28:06;;;;;;;27.60;24.67;;;22.90;99.90;;;;;;4954986;29;20058;-79
2021/09/17 12:30:37;;;;;;;27.20;24.05;;;22.90;99.90;;;;;;4954619;29;20078;-79
2021/09/17 12:33:11;;;;;;;27.80;24.85;;;22.70;99.90;;;;;;4955267;28;20061;-79
2021/09/17 12:35:41;;;;;;;30.08;25.10;;;22.80;99.90;;;;;;4955642;29;20134;-78
2021/09/17 12:38:09;;;;;;;28.45;24.67;;;22.80;99.90;;;;;;4955038;29;20051;-79
2021/09/17 12:40:39;;;;;;;32.67;27.67;;;22.80;99.90;;;;;;4955120;29;20086;-79